Time;durP1;ratioP1;P1;durP2;ratioP2;P2;SDS_P1;SDS_P2;PMS_P1;PMS_P2;Temp;Humidity;BMP_temperature;BMP_pressure;BME280_temperature;BME280_humidity;BME280_pressure;Samples;Min_cycle;Max_cycle;Signal;HPM_P1;HPM_P2
2022/03/17 00:01:26;;;;;;;57.55;33.47;;;;;;;;;;4993531;28;20034;-54
2022/03/17 00:03:52;;;;;;;57.88;33.92;;;;;;;;;;4994159;28;20133;-52
2022/03/17 00:06:18;;;;;;;62.15;35.65;;;;;;;;;;4993701;28;20061;-50
2022/03/17 00:08:44;;;;;;;57.17;34.22;;;;;;;;;;4993446;28;20026;-51
2022/03/17 00:11:11;;;;;;;56.00;32.10;;;;;;;;;;4993702;28;20472;-53
2022/03/17 00:13:37;;;;;;;49.80;29.83;;;;;;;;;;4993706;28;20380;-49
2022/03/17 00:16:04;;;;;;;49.50;29.88;;;;;;;;;;4993637;28;20089;-53
2022/03/17 00:18:30;;;;;;;42.40;28.30;;;;;;;;;;4993602;28;20050;-54
2022/03/17 00:20:56;;;;;;;50.78;29.75;;;;;;;;;;4992149;28;20026;-50
2022/03/17 00:23:22;;;;;;;46.90;28.05;;;;;;;;;;4993886;28;20080;-53
2022/03/17 00:25:49;;;;;;;48.88;27.73;;;;;;;;;;4993655;28;20041;-53
2022/03/17 00:28:15;;;;;;;48.50;28.85;;;;;;;;;;4993186;28;20022;-51
2022/03/17 00:30:41;;;;;;;39.33;26.13;;;;;;;;;;4993879;28;20037;-54
2022/03/17 00:33:07;;;;;;;40.83;25.98;;;;;;;;;;4993830;28;20109;-51
2022/03/17 00:35:36;;;;;;;65.65;39.17;;;;;;;;;;4993914;28;20029;-54
2022/03/17 00:38:03;;;;;;;65.88;40.42;;;;;;;;;;4993808;28;20018;-52
2022/03/17 00:40:30;;;;;;;68.95;37.97;;;;;;;;;;4996667;28;20022;-52
2022/03/17 00:42:56;;;;;;;48.40;28.70;;;;;;;;;;4997092;28;20034;-51
2022/03/17 00:45:25;;;;;;;56.42;31.00;;;;;;;;;;4997017;28;20033;-53
2022/03/17 00:47:51;;;;;;;60.30;34.72;;;;;;;;;;4997264;28;20529;-53
2022/03/17 00:50:17;;;;;;;62.05;36.13;;;;;;;;;;4996967;28;20026;-51
2022/03/17 00:52:44;;;;;;;62.75;36.35;;;;;;;;;;4997310;28;20113;-52
2022/03/17 00:55:10;;;;;;;67.95;37.72;;;;;;;;;;4997173;28;20033;-51
2022/03/17 00:57:37;;;;;;;59.67;36.25;;;;;;;;;;4996657;28;20051;-52
2022/03/17 01:00:07;;;;;;;65.32;38.90;;;;;;;;;;4996950;28;20034;-52
2022/03/17 01:02:33;;;;;;;65.43;36.80;;;;;;;;;;4997034;28;20026;-55
2022/03/17 01:04:59;;;;;;;71.63;39.05;;;;;;;;;;4996417;28;20490;-49
2022/03/17 01:07:25;;;;;;;69.65;39.45;;;;;;;;;;4996925;28;20032;-52
2022/03/17 01:09:51;;;;;;;56.97;33.88;;;;;;;;;;4996346;28;20022;-53
2022/03/17 01:12:17;;;;;;;57.10;32.50;;;;;;;;;;4996871;28;20088;-50
2022/03/17 01:14:44;;;;;;;46.42;28.50;;;;;;;;;;4997112;28;20026;-53
2022/03/17 01:17:10;;;;;;;44.45;28.67;;;;;;;;;;4996243;28;20494;-51
2022/03/17 01:19:36;;;;;;;39.38;24.55;;;;;;;;;;4996699;28;20379;-55
2022/03/17 01:22:03;;;;;;;37.67;23.65;;;;;;;;;;4996429;28;20472;-48
2022/03/17 01:24:29;;;;;;;45.72;24.80;;;;;;;;;;4996311;28;20029;-52
2022/03/17 01:26:55;;;;;;;39.80;24.67;;;;;;;;;;4996642;28;20023;-51
2022/03/17 01:29:21;;;;;;;40.72;25.27;;;;;;;;;;4996868;28;20025;-53
2022/03/17 01:31:48;;;;;;;52.58;31.67;;;;;;;;;;4996185;28;20105;-52
2022/03/17 01:34:14;;;;;;;63.58;37.50;;;;;;;;;;4996288;28;20034;-53
2022/03/17 01:36:40;;;;;;;63.55;38.67;;;;;;;;;;4995218;28;20085;-52
2022/03/17 01:39:06;;;;;;;61.67;36.72;;;;;;;;;;4995996;28;20026;-51
2022/03/17 01:41:32;;;;;;;58.65;34.75;;;;;;;;;;4996077;28;20372;-51
2022/03/17 01:43:58;;;;;;;54.03;31.02;;;;;;;;;;4996210;28;20031;-53
2022/03/17 01:46:24;;;;;;;47.40;28.85;;;;;;;;;;4995717;28;20026;-54
2022/03/17 01:48:51;;;;;;;43.80;27.52;;;;;;;;;;4996209;28;20077;-52
2022/03/17 01:51:17;;;;;;;52.25;29.52;;;;;;;;;;4995128;28;20034;-49
2022/03/17 01:53:46;;;;;;;51.95;30.92;;;;;;;;;;4995563;28;20076;-56
2022/03/17 01:56:13;;;;;;;50.58;29.45;;;;;;;;;;4995957;28;20039;-54
2022/03/17 01:58:39;;;;;;;44.00;28.13;;;;;;;;;;4995895;28;20026;-53
2022/03/17 02:01:05;;;;;;;43.08;26.70;;;;;;;;;;4995634;28;20391;-54
2022/03/17 02:03:31;;;;;;;38.42;23.90;;;;;;;;;;4995594;28;20494;-53
2022/03/17 02:05:57;;;;;;;38.80;23.67;;;;;;;;;;4995543;28;20027;-55
2022/03/17 02:08:23;;;;;;;39.53;24.35;;;;;;;;;;4995623;28;20027;-55
2022/03/17 02:13:34;;;;;;;39.85;24.25;;;;;;;;;;4995307;28;20559;-52
2022/03/17 02:16:03;;;;;;;40.28;25.08;;;;;;;;;;4995940;28;20069;-54
2022/03/17 02:18:30;;;;;;;41.83;24.85;;;;;;;;;;4995568;28;20033;-51
2022/03/17 02:20:59;;;;;;;39.05;25.25;;;;;;;;;;4995293;28;20095;-53
2022/03/17 02:26:10;;;;;;;39.53;25.38;;;;;;;;;;4995324;28;20080;-55
2022/03/17 02:28:36;;;;;;;41.88;26.10;;;;;;;;;;4995086;28;20503;-55
2022/03/17 02:31:02;;;;;;;38.13;25.20;;;;;;;;;;4995166;28;20029;-56
2022/03/17 02:33:29;;;;;;;39.22;26.20;;;;;;;;;;4995311;28;20018;-48
2022/03/17 02:35:55;;;;;;;38.30;25.48;;;;;;;;;;4994692;28;20372;-57
2022/03/17 02:38:22;;;;;;;39.42;24.80;;;;;;;;;;4994960;28;20018;-56
2022/03/17 02:40:50;;;;;;;37.28;25.63;;;;;;;;;;4994918;28;20053;-51
2022/03/17 02:43:18;;;;;;;37.45;26.05;;;;;;;;;;4995146;28;20030;-51
2022/03/17 02:45:45;;;;;;;42.28;26.17;;;;;;;;;;4994992;28;20034;-49
2022/03/17 02:48:11;;;;;;;33.78;24.40;;;;;;;;;;4994766;28;20031;-55
2022/03/17 02:50:38;;;;;;;33.10;23.15;;;;;;;;;;4994814;28;20026;-54
2022/03/17 02:53:08;;;;;;;37.00;23.67;;;;;;;;;;4994965;28;20368;-54
2022/03/17 02:55:39;;;;;;;32.42;22.30;;;;;;;;;;4994409;28;20031;-51
2022/03/17 02:58:06;;;;;;;37.17;23.65;;;;;;;;;;4994770;28;20078;-52
2022/03/17 03:00:33;;;;;;;36.63;22.45;;;;;;;;;;4994883;28;20022;-54
2022/03/17 03:02:59;;;;;;;33.92;22.80;;;;;;;;;;4993778;28;20024;-52
2022/03/17 03:05:26;;;;;;;36.90;23.10;;;;;;;;;;4994730;28;20026;-55
2022/03/17 03:07:53;;;;;;;34.80;23.30;;;;;;;;;;4994545;28;20022;-53
2022/03/17 03:10:19;;;;;;;36.83;25.02;;;;;;;;;;4994250;28;20029;-52
2022/03/17 03:12:46;;;;;;;39.78;24.15;;;;;;;;;;4994640;28;20030;-56
2022/03/17 03:15:12;;;;;;;40.25;25.35;;;;;;;;;;4995205;28;20036;-52
2022/03/17 03:17:38;;;;;;;37.88;25.50;;;;;;;;;;4994059;28;20368;-51
2022/03/17 03:20:05;;;;;;;38.20;24.73;;;;;;;;;;4994806;28;20026;-51
2022/03/17 03:22:36;;;;;;;37.75;25.27;;;;;;;;;;4994264;28;20026;-54
2022/03/17 03:25:03;;;;;;;40.40;25.83;;;;;;;;;;4993910;28;20391;-52
2022/03/17 03:27:29;;;;;;;39.88;25.67;;;;;;;;;;4994483;28;20026;-52
2022/03/17 03:29:56;;;;;;;37.97;24.38;;;;;;;;;;4993890;28;20053;-55
2022/03/17 03:32:23;;;;;;;43.35;27.10;;;;;;;;;;4994242;28;20112;-51
2022/03/17 03:34:49;;;;;;;42.80;26.30;;;;;;;;;;4993986;28;20050;-51
2022/03/17 03:37:25;;;;;;;47.90;28.75;;;;;;;;;;4994110;28;20019;-52
2022/03/17 03:39:55;;;;;;;44.05;27.60;;;;;;;;;;4994323;28;20033;-53
2022/03/17 03:42:21;;;;;;;45.67;28.25;;;;;;;;;;4994026;28;20023;-53
2022/03/17 03:44:48;;;;;;;43.05;24.88;;;;;;;;;;4993655;28;20041;-53
2022/03/17 03:47:14;;;;;;;43.28;26.05;;;;;;;;;;4994009;28;20019;-52
2022/03/17 03:49:42;;;;;;;44.75;26.25;;;;;;;;;;4994241;28;20061;-56
2022/03/17 03:52:08;;;;;;;44.63;27.35;;;;;;;;;;4993585;28;20158;-54
2022/03/17 03:54:34;;;;;;;53.17;30.45;;;;;;;;;;4994333;28;20121;-56
2022/03/17 03:57:00;;;;;;;106.85;47.25;;;;;;;;;;4994180;28;20054;-52
2022/03/17 03:59:30;;;;;;;84.93;41.25;;;;;;;;;;4993811;28;20027;-54
2022/03/17 04:02:01;;;;;;;145.13;62.78;;;;;;;;;;4994259;28;20415;-51
2022/03/17 04:04:28;;;;;;;136.10;60.25;;;;;;;;;;4993804;28;20057;-52
2022/03/17 04:06:56;;;;;;;128.23;53.60;;;;;;;;;;4994092;28;20106;-54
2022/03/17 04:09:26;;;;;;;77.03;39.17;;;;;;;;;;4993683;28;20023;-54
2022/03/17 04:11:52;;;;;;;42.15;26.60;;;;;;;;;;4993901;28;20067;-52
2022/03/17 04:14:19;;;;;;;39.78;25.08;;;;;;;;;;4997205;28;20101;-54
2022/03/17 04:16:45;;;;;;;35.35;23.10;;;;;;;;;;4997920;28;20026;-52
2022/03/17 04:19:12;;;;;;;39.15;25.80;;;;;;;;;;4997452;28;20110;-51
2022/03/17 04:21:39;;;;;;;40.83;25.95;;;;;;;;;;4997472;28;20030;-50
2022/03/17 04:24:05;;;;;;;66.50;36.50;;;;;;;;;;4997663;28;20038;-51
2022/03/17 04:26:31;;;;;;;62.45;34.95;;;;;;;;;;4997224;28;20026;-52
2022/03/17 04:28:58;;;;;;;72.47;39.47;;;;;;;;;;4996977;28;20482;-54
2022/03/17 04:31:24;;;;;;;76.60;41.50;;;;;;;;;;4997328;28;20045;-52
2022/03/17 04:33:51;;;;;;;65.88;34.92;;;;;;;;;;4997151;28;20029;-51
2022/03/17 04:36:18;;;;;;;53.08;30.88;;;;;;;;;;4997191;28;20352;-52
2022/03/17 04:38:44;;;;;;;40.53;25.90;;;;;;;;;;4997507;28;20041;-50
2022/03/17 04:41:11;;;;;;;36.42;23.77;;;;;;;;;;4996229;28;20058;-53
2022/03/17 04:43:37;;;;;;;38.75;23.80;;;;;;;;;;4997680;28;20109;-55
2022/03/17 04:46:03;;;;;;;39.60;24.23;;;;;;;;;;4997089;28;20038;-52
2022/03/17 04:48:30;;;;;;;39.15;24.30;;;;;;;;;;4996751;28;20475;-50
2022/03/17 04:50:56;;;;;;;37.38;22.95;;;;;;;;;;4996925;28;20095;-56
2022/03/17 04:53:30;;;;;;;39.13;23.05;;;;;;;;;;4997458;28;20022;-52
2022/03/17 04:56:03;;;;;;;41.38;25.00;;;;;;;;;;4996487;28;20030;-54
2022/03/17 04:58:31;;;;;;;75.68;37.10;;;;;;;;;;4996371;28;20031;-53
2022/03/17 05:00:57;;;;;;;72.15;37.03;;;;;;;;;;4996396;28;20098;-51
2022/03/17 05:03:24;;;;;;;60.78;33.53;;;;;;;;;;4996784;28;20112;-51
2022/03/17 05:05:51;;;;;;;52.10;30.33;;;;;;;;;;4996911;28;20041;-55
2022/03/17 05:08:17;;;;;;;48.45;29.08;;;;;;;;;;4996224;28;20040;-51
2022/03/17 05:10:44;;;;;;;49.60;29.20;;;;;;;;;;4995610;28;20026;-49
2022/03/17 05:13:11;;;;;;;56.50;31.00;;;;;;;;;;4995574;28;20478;-51
2022/03/17 05:15:37;;;;;;;53.40;30.52;;;;;;;;;;4996334;28;20077;-53
2022/03/17 05:18:07;;;;;;;48.78;31.33;;;;;;;;;;4996696;28;20050;-50
2022/03/17 05:20:37;;;;;;;49.90;30.92;;;;;;;;;;4996399;28;20058;-55
2022/03/17 05:23:04;;;;;;;46.95;30.02;;;;;;;;;;4996015;28;20077;-48
2022/03/17 05:25:31;;;;;;;53.30;31.77;;;;;;;;;;4995627;28;20058;-54
2022/03/17 05:27:58;;;;;;;47.70;29.58;;;;;;;;;;4997012;28;20022;-52
2022/03/17 05:30:24;;;;;;;48.58;30.40;;;;;;;;;;4996125;28;20027;-51
2022/03/17 05:32:50;;;;;;;49.97;30.83;;;;;;;;;;4996193;28;20026;-52
2022/03/17 05:35:17;;;;;;;53.17;31.70;;;;;;;;;;4996094;28;20034;-54
2022/03/17 05:37:43;;;;;;;54.78;32.63;;;;;;;;;;4996094;28;20368;-52
2022/03/17 05:40:14;;;;;;;62.53;35.22;;;;;;;;;;4996325;28;20023;-57
2022/03/17 05:42:44;;;;;;;63.22;37.33;;;;;;;;;;4996194;28;20018;-54
2022/03/17 05:45:11;;;;;;;51.97;33.20;;;;;;;;;;4990786;28;20035;-53
2022/03/17 05:47:38;;;;;;;55.70;31.80;;;;;;;;;;4988998;28;20101;-52
2022/03/17 05:50:05;;;;;;;49.38;31.25;;;;;;;;;;4995946;28;20026;-56
2022/03/17 05:52:31;;;;;;;62.30;34.60;;;;;;;;;;4995217;28;20049;-50
2022/03/17 05:54:58;;;;;;;55.13;33.50;;;;;;;;;;4996232;28;20161;-54
2022/03/17 05:57:24;;;;;;;53.00;33.53;;;;;;;;;;4995681;28;20057;-53
2022/03/17 05:59:50;;;;;;;209.13;129.27;;;;;;;;;;4996006;28;20453;-52
2022/03/17 06:02:16;;;;;;;58.63;37.72;;;;;;;;;;4995940;28;20030;-54
2022/03/17 06:04:42;;;;;;;67.15;40.47;;;;;;;;;;4995723;28;20030;-52
2022/03/17 06:07:09;;;;;;;57.60;37.15;;;;;;;;;;4994702;28;20058;-55
2022/03/17 06:09:35;;;;;;;59.53;36.03;;;;;;;;;;4992115;28;20022;-53
2022/03/17 06:12:03;;;;;;;61.67;38.17;;;;;;;;;;4993506;28;20022;-53
2022/03/17 06:14:29;;;;;;;70.55;39.83;;;;;;;;;;4993793;28;20066;-55
2022/03/17 06:16:55;;;;;;;68.70;41.40;;;;;;;;;;4992522;28;20403;-54
2022/03/17 06:19:21;;;;;;;72.60;42.08;;;;;;;;;;4993574;28;20057;-53
2022/03/17 06:21:47;;;;;;;123.80;58.20;;;;;;;;;;4993501;28;20026;-57
2022/03/17 06:24:13;;;;;;;80.85;44.67;;;;;;;;;;4995034;28;20057;-49
2022/03/17 06:26:40;;;;;;;70.93;42.00;;;;;;;;;;4995180;28;20022;-53
2022/03/17 06:29:06;;;;;;;71.20;41.33;;;;;;;;;;4995104;28;20030;-52
2022/03/17 06:31:32;;;;;;;58.88;37.28;;;;;;;;;;4995106;28;20030;-49
2022/03/17 06:33:58;;;;;;;163.27;72.68;;;;;;;;;;4994740;28;20084;-53
2022/03/17 06:36:26;;;;;;;138.82;65.63;;;;;;;;;;4995534;28;20517;-52
2022/03/17 06:38:55;;;;;;;108.72;52.95;;;;;;;;;;4994587;28;20487;-52
2022/03/17 06:41:21;;;;;;;131.63;63.78;;;;;;;;;;4994995;28;20114;-54
2022/03/17 06:43:47;;;;;;;69.75;39.72;;;;;;;;;;4994849;28;20053;-56
2022/03/17 06:46:14;;;;;;;74.18;40.60;;;;;;;;;;4994862;28;20023;-53
2022/03/17 06:48:41;;;;;;;56.83;32.90;;;;;;;;;;4993345;28;20379;-51
2022/03/17 06:51:07;;;;;;;50.70;32.13;;;;;;;;;;4993093;28;20026;-53
2022/03/17 06:53:33;;;;;;;64.63;37.80;;;;;;;;;;4992362;28;20415;-54
2022/03/17 06:55:59;;;;;;;70.72;40.85;;;;;;;;;;4991340;28;20307;-52
2022/03/17 06:58:25;;;;;;;76.38;45.22;;;;;;;;;;4992381;28;20018;-47
2022/03/17 07:00:51;;;;;;;77.10;46.95;;;;;;;;;;4992324;28;20084;-55
2022/03/17 07:03:17;;;;;;;87.82;51.17;;;;;;;;;;4993459;28;20019;-55
2022/03/17 07:05:44;;;;;;;92.60;52.25;;;;;;;;;;4994707;28;20030;-56
2022/03/17 07:08:10;;;;;;;84.82;52.15;;;;;;;;;;4994491;28;20022;-55
2022/03/17 07:10:36;;;;;;;84.45;51.05;;;;;;;;;;4995034;28;20113;-54
2022/03/17 07:13:02;;;;;;;95.50;56.13;;;;;;;;;;4994657;28;20030;-52
2022/03/17 07:15:29;;;;;;;89.78;54.92;;;;;;;;;;4994308;28;20348;-52
2022/03/17 07:17:55;;;;;;;90.13;51.70;;;;;;;;;;4994679;28;20092;-48
2022/03/17 07:20:21;;;;;;;92.95;54.22;;;;;;;;;;4994253;28;20475;-51
2022/03/17 07:22:49;;;;;;;88.13;53.88;;;;;;;;;;4993864;28;20080;-52
2022/03/17 07:25:17;;;;;;;84.18;51.17;;;;;;;;;;4994424;28;20078;-50
2022/03/17 07:27:45;;;;;;;81.53;47.42;;;;;;;;;;4994432;28;20109;-48
2022/03/17 07:30:12;;;;;;;87.78;52.60;;;;;;;;;;4994226;28;20027;-52
2022/03/17 07:32:38;;;;;;;86.07;52.35;;;;;;;;;;4994249;28;20053;-48
2022/03/17 07:35:05;;;;;;;86.78;51.63;;;;;;;;;;4993865;28;20030;-50
2022/03/17 07:37:32;;;;;;;82.43;48.42;;;;;;;;;;4993982;28;20050;-50
2022/03/17 07:39:58;;;;;;;82.63;48.70;;;;;;;;;;4994360;28;20023;-49
2022/03/17 07:42:24;;;;;;;74.15;45.53;;;;;;;;;;4994057;28;20064;-55
2022/03/17 07:44:50;;;;;;;78.80;47.28;;;;;;;;;;4993990;28;20086;-51
2022/03/17 07:47:17;;;;;;;75.45;45.50;;;;;;;;;;4994970;28;20072;-50
2022/03/17 07:49:44;;;;;;;71.47;43.70;;;;;;;;;;4999185;28;20031;-53
2022/03/17 07:52:10;;;;;;;58.28;36.40;;;;;;;;;;5001054;28;20482;-48
2022/03/17 07:54:36;;;;;;;60.70;37.92;;;;;;;;;;5000437;28;20434;-53
2022/03/17 07:57:05;;;;;;;64.28;37.58;;;;;;;;;;5000501;28;20062;-48
2022/03/17 07:59:32;;;;;;;60.17;37.63;;;;;;;;;;5000656;28;20022;-48
2022/03/17 08:01:58;;;;;;;56.00;35.78;;;;;;;;;;5000640;28;20018;-50
2022/03/17 08:04:25;;;;;;;63.92;38.97;;;;;;;;;;5000244;28;20034;-50
2022/03/17 08:06:53;;;;;;;58.35;37.20;;;;;;;;;;5000615;28;20471;-55
2022/03/17 08:09:20;;;;;;;57.90;36.00;;;;;;;;;;5000509;28;20027;-50
2022/03/17 08:11:48;;;;;;;62.60;38.65;;;;;;;;;;5000025;28;20431;-51
2022/03/17 08:14:16;;;;;;;52.30;33.05;;;;;;;;;;5000482;28;20038;-51
2022/03/17 08:16:43;;;;;;;49.33;31.40;;;;;;;;;;5000249;28;20029;-52
2022/03/17 08:19:10;;;;;;;52.97;32.33;;;;;;;;;;5000478;28;20036;-50
2022/03/17 08:21:36;;;;;;;52.15;32.90;;;;;;;;;;5000171;28;20022;-51
2022/03/17 08:24:02;;;;;;;78.70;47.00;;;;;;;;;;5000102;28;20022;-51
2022/03/17 08:26:28;;;;;;;75.35;45.90;;;;;;;;;;5000763;28;20053;-54
2022/03/17 08:28:55;;;;;;;66.05;39.70;;;;;;;;;;5000570;28;20037;-51
2022/03/17 08:31:21;;;;;;;56.70;34.97;;;;;;;;;;4999828;28;20506;-58
2022/03/17 08:33:47;;;;;;;84.53;53.40;;;;;;;;;;5000453;28;20018;-54
2022/03/17 08:36:13;;;;;;;62.13;37.15;;;;;;;;;;5000389;28;20022;-52
2022/03/17 08:38:39;;;;;;;48.65;30.60;;;;;;;;;;4997632;28;20057;-52
2022/03/17 08:41:05;;;;;;;45.80;29.00;;;;;;;;;;4999609;28;20031;-53
2022/03/17 08:43:31;;;;;;;49.25;28.15;;;;;;;;;;5000340;28;20026;-51
2022/03/17 08:51:28;;;;;;;36.22;21.33;;;;;;;;;;4998426;28;20033;-53
2022/03/17 08:53:58;;;;;;;56.92;33.75;;;;;;;;;;4999613;28;20078;-52
2022/03/17 08:56:24;;;;;;;44.13;26.02;;;;;;;;;;4999687;28;20042;-51
2022/03/17 08:58:51;;;;;;;58.35;30.75;;;;;;;;;;4998859;28;20150;-53
2022/03/17 09:01:17;;;;;;;43.38;24.65;;;;;;;;;;4996400;28;20084;-55
2022/03/17 09:03:43;;;;;;;30.58;19.50;;;;;;;;;;4996805;28;20033;-49
2022/03/17 09:06:10;;;;;;;55.08;29.48;;;;;;;;;;4996389;28;20037;-51
2022/03/17 09:08:37;;;;;;;67.10;39.30;;;;;;;;;;4995235;28;20046;-52
2022/03/17 09:11:03;;;;;;;50.75;29.58;;;;;;;;;;4996484;28;20030;-49
2022/03/17 09:13:29;;;;;;;35.95;22.38;;;;;;;;;;4984098;28;20476;-52
2022/03/17 09:15:55;;;;;;;42.08;26.13;;;;;;;;;;4991437;28;20030;-51
2022/03/17 09:18:22;;;;;;;32.95;19.60;;;;;;;;;;4995420;28;20093;-55
2022/03/17 09:20:49;;;;;;;40.33;21.58;;;;;;;;;;4995879;28;20053;-49
2022/03/17 09:23:16;;;;;;;28.98;18.92;;;;;;;;;;4996034;28;20124;-54
2022/03/17 09:25:43;;;;;;;40.97;25.50;;;;;;;;;;4996213;28;20490;-50
2022/03/17 09:28:09;;;;;;;27.35;17.25;;;;;;;;;;4994778;28;20145;-49
2022/03/17 09:30:35;;;;;;;28.90;17.23;;;;;;;;;;4995777;28;20096;-56
2022/03/17 09:33:03;;;;;;;40.30;23.88;;;;;;;;;;4996215;28;20023;-50
2022/03/17 09:35:29;;;;;;;22.17;13.90;;;;;;;;;;4995763;28;20018;-52
2022/03/17 09:37:55;;;;;;;23.23;15.95;;;;;;;;;;4996447;28;20026;-49
2022/03/17 09:40:22;;;;;;;17.42;10.57;;;;;;;;;;4996385;28;20080;-56
2022/03/17 09:42:48;;;;;;;17.88;11.73;;;;;;;;;;4995703;28;20387;-56
2022/03/17 09:45:14;;;;;;;22.90;13.57;;;;;;;;;;4996215;28;20530;-53
2022/03/17 09:47:41;;;;;;;18.10;12.20;;;;;;;;;;4995545;28;20562;-52
2022/03/17 09:50:09;;;;;;;19.15;12.80;;;;;;;;;;4996061;28;20060;-49
2022/03/17 09:52:39;;;;;;;20.48;14.63;;;;;;;;;;4995821;28;20077;-55
2022/03/17 09:55:09;;;;;;;19.58;13.45;;;;;;;;;;4995641;28;20030;-53
2022/03/17 09:57:36;;;;;;;23.45;16.23;;;;;;;;;;4995500;28;20053;-51
2022/03/17 10:00:02;;;;;;;22.85;15.98;;;;;;;;;;4995640;28;20113;-54
2022/03/17 10:02:30;;;;;;;22.80;15.05;;;;;;;;;;4995519;28;20025;-51
2022/03/17 10:04:56;;;;;;;30.98;19.45;;;;;;;;;;4995800;28;20384;-53
2022/03/17 10:07:22;;;;;;;30.45;20.20;;;;;;;;;;4995491;28;20464;-50
2022/03/17 10:09:49;;;;;;;28.30;17.35;;;;;;;;;;4995364;28;20023;-52
2022/03/17 10:12:20;;;;;;;46.33;28.92;;;;;;;;;;4995836;28;20023;-54
2022/03/17 10:14:50;;;;;;;47.28;28.23;;;;;;;;;;4995601;28;20147;-55
2022/03/17 10:17:31;;;;;;;41.77;24.83;;;;;;;;;;4995314;28;20368;-55
2022/03/17 10:20:13;;;;;;;26.10;16.63;;;;;;;;;;4995451;28;20383;-53
2022/03/17 10:22:46;;;;;;;28.63;16.88;;;;;;;;;;4995095;28;20077;-55
2022/03/17 10:25:20;;;;;;;30.85;20.10;;;;;;;;;;4995449;28;20455;-53
2022/03/17 10:27:46;;;;;;;33.63;17.48;;;;;;;;;;4995208;28;20026;-53
2022/03/17 10:30:35;;;;;;;29.35;18.17;;;;;;;;;;4994991;28;20019;-53
2022/03/17 10:33:05;;;;;;;61.85;34.53;;;;;;;;;;4995116;28;20027;-48
2022/03/17 10:35:35;;;;;;;31.45;20.00;;;;;;;;;;4993231;28;20081;-54
2022/03/17 10:38:14;;;;;;;32.85;19.25;;;;;;;;;;4994696;28;20030;-55
2022/03/17 10:40:41;;;;;;;36.20;21.05;;;;;;;;;;4995194;28;20022;-55
2022/03/17 10:43:22;;;;;;;24.70;15.88;;;;;;;;;;4993834;28;20527;-54
2022/03/17 10:46:03;;;;;;;31.95;18.80;;;;;;;;;;4994787;28;20105;-52
2022/03/17 10:48:29;;;;;;;27.03;16.57;;;;;;;;;;4995196;28;20471;-49
2022/03/17 10:50:55;;;;;;;43.97;20.20;;;;;;;;;;4994436;28;20759;-56
2022/03/17 10:53:27;;;;;;;34.25;20.13;;;;;;;;;;4994797;28;20463;-51
2022/03/17 10:55:53;;;;;;;42.95;23.00;;;;;;;;;;4994784;28;20030;-52
2022/03/17 10:58:20;;;;;;;35.63;21.63;;;;;;;;;;4993682;28;20113;-50
2022/03/17 11:00:47;;;;;;;24.83;15.68;;;;;;;;;;4994922;28;20029;-51
2022/03/17 11:03:14;;;;;;;24.38;15.05;;;;;;;;;;4994886;28;20077;-52
2022/03/17 11:05:40;;;;;;;24.38;14.18;;;;;;;;;;4994447;28;20022;-55
2022/03/17 11:08:09;;;;;;;33.47;18.05;;;;;;;;;;4994726;28;20038;-54
2022/03/17 11:10:36;;;;;;;27.67;16.27;;;;;;;;;;4994651;28;20028;-52
2022/03/17 11:13:09;;;;;;;20.80;12.82;;;;;;;;;;4993035;28;20023;-50
2022/03/17 11:15:38;;;;;;;24.88;14.65;;;;;;;;;;4994634;28;20093;-54
2022/03/17 11:18:08;;;;;;;25.13;14.57;;;;;;;;;;4995029;28;20033;-49
2022/03/17 11:20:35;;;;;;;23.05;14.80;;;;;;;;;;4994312;28;20471;-50
2022/03/17 11:23:05;;;;;;;21.42;14.65;;;;;;;;;;4993877;28;20038;-54
2022/03/17 11:25:34;;;;;;;44.90;28.10;;;;;;;;;;4994235;28;20472;-54
2022/03/17 11:28:01;;;;;;;24.08;14.95;;;;;;;;;;4994207;28;20435;-54
2022/03/17 11:30:32;;;;;;;26.00;16.25;;;;;;;;;;4994363;28;20023;-54
2022/03/17 11:32:58;;;;;;;24.30;15.95;;;;;;;;;;4994106;28;20027;-51
2022/03/17 11:35:29;;;;;;;22.15;14.32;;;;;;;;;;4994351;28;20109;-54
2022/03/17 11:38:15;;;;;;;31.52;18.52;;;;;;;;;;4994619;28;20022;-53
2022/03/17 11:41:10;;;;;;;26.15;17.10;;;;;;;;;;4994039;28;20381;-50
2022/03/17 11:43:40;;;;;;;33.45;21.58;;;;;;;;;;4981368;28;20395;-54
2022/03/17 11:46:09;;;;;;;36.60;23.60;;;;;;;;;;4994812;28;20084;-52
2022/03/17 11:48:36;;;;;;;38.03;23.25;;;;;;;;;;4993773;28;20037;-53
2022/03/17 11:51:06;;;;;;;35.08;22.90;;;;;;;;;;4994207;28;20145;-51
2022/03/17 11:53:40;;;;;;;52.58;28.75;;;;;;;;;;4993880;28;20034;-52
2022/03/17 11:56:09;;;;;;;45.17;26.05;;;;;;;;;;4994143;28;20073;-51
2022/03/17 11:58:42;;;;;;;51.50;31.58;;;;;;;;;;4994926;28;20030;-51
2022/03/17 12:01:11;;;;;;;41.55;26.85;;;;;;;;;;4994150;28;20018;-56
2022/03/17 12:03:47;;;;;;;33.60;21.00;;;;;;;;;;4994195;28;20030;-50
2022/03/17 12:06:17;;;;;;;33.45;21.30;;;;;;;;;;4993706;28;20033;-50
2022/03/17 12:08:50;;;;;;;40.38;24.92;;;;;;;;;;4993814;28;20026;-54
2022/03/17 12:11:16;;;;;;;39.08;23.33;;;;;;;;;;4994672;28;20364;-55
2022/03/17 12:13:43;;;;;;;37.53;22.60;;;;;;;;;;4992758;28;20037;-53
2022/03/17 12:16:12;;;;;;;33.67;20.73;;;;;;;;;;4993482;28;20022;-54
2022/03/17 12:19:00;;;;;;;34.78;23.35;;;;;;;;;;4993778;28;20030;-55
2022/03/17 12:21:52;;;;;;;40.65;24.55;;;;;;;;;;4993977;28;20509;-49
2022/03/17 12:24:40;;;;;;;32.53;19.92;;;;;;;;;;4993406;28;20023;-54
2022/03/17 12:27:11;;;;;;;31.30;21.45;;;;;;;;;;4994254;28;20040;-57
2022/03/17 12:29:38;;;;;;;27.95;19.27;;;;;;;;;;4993586;28;20022;-51
2022/03/17 12:32:05;;;;;;;28.83;20.02;;;;;;;;;;4993817;28;20026;-52
2022/03/17 12:34:32;;;;;;;29.58;19.00;;;;;;;;;;4995653;28;20022;-53
2022/03/17 12:37:00;;;;;;;27.35;18.63;;;;;;;;;;4997254;28;20072;-53
2022/03/17 12:39:28;;;;;;;29.92;20.33;;;;;;;;;;4997457;28;20030;-55
2022/03/17 12:41:54;;;;;;;25.92;18.33;;;;;;;;;;4997428;28;20031;-50
2022/03/17 12:44:26;;;;;;;25.33;18.42;;;;;;;;;;4997072;28;20038;-52
2022/03/17 12:46:53;;;;;;;30.10;17.05;;;;;;;;;;4996990;28;20061;-52
2022/03/17 12:49:20;;;;;;;25.35;17.13;;;;;;;;;;4997376;28;20022;-55
2022/03/17 12:51:47;;;;;;;25.55;16.27;;;;;;;;;;4997062;28;20030;-54
2022/03/17 12:54:16;;;;;;;26.88;16.00;;;;;;;;;;4997275;28;20026;-54
2022/03/17 12:56:50;;;;;;;27.88;19.48;;;;;;;;;;4996815;28;20054;-58
2022/03/17 12:59:16;;;;;;;41.00;23.65;;;;;;;;;;4996870;28;20029;-51
2022/03/17 13:01:43;;;;;;;28.13;19.23;;;;;;;;;;4996891;28;20093;-52
2022/03/17 13:04:09;;;;;;;25.58;17.73;;;;;;;;;;4996493;28;20034;-52
2022/03/17 13:06:54;;;;;;;28.27;18.08;;;;;;;;;;4997288;28;20031;-48
2022/03/17 13:09:33;;;;;;;30.98;19.15;;;;;;;;;;4996750;28;20023;-52
2022/03/17 13:14:55;;;;;;;25.50;16.92;;;;;;;;;;4996879;28;20455;-56
2022/03/17 13:17:38;;;;;;;26.48;16.83;;;;;;;;;;4996857;28;20026;-51
2022/03/17 13:20:25;;;;;;;26.80;16.88;;;;;;;;;;4996391;28;20037;-57
2022/03/17 13:23:05;;;;;;;29.08;17.67;;;;;;;;;;4996322;28;20037;-55
2022/03/17 13:25:33;;;;;;;25.35;16.73;;;;;;;;;;4996751;28;20076;-54
2022/03/17 13:28:04;;;;;;;56.45;33.45;;;;;;;;;;4996780;28;20022;-51
2022/03/17 13:30:34;;;;;;;28.45;19.75;;;;;;;;;;4997312;28;20364;-56
2022/03/17 13:33:21;;;;;;;23.83;16.38;;;;;;;;;;4996144;28;20014;-55
2022/03/17 13:35:49;;;;;;;27.77;18.65;;;;;;;;;;4996258;28;20480;-56
2022/03/17 13:38:18;;;;;;;30.67;20.55;;;;;;;;;;4996167;28;20033;-56
2022/03/17 13:40:48;;;;;;;26.27;18.67;;;;;;;;;;4996025;28;20464;-52
2022/03/17 13:43:15;;;;;;;29.77;19.13;;;;;;;;;;4996271;28;20032;-53
2022/03/17 13:45:42;;;;;;;35.28;26.08;;;;;;;;;;4994927;28;20037;-50
2022/03/17 13:48:13;;;;;;;27.27;16.85;;;;;;;;;;4996086;28;20058;-54
2022/03/17 13:50:50;;;;;;;25.67;17.60;;;;;;;;;;4994939;28;20025;-53
2022/03/17 13:53:17;;;;;;;24.90;16.75;;;;;;;;;;4995872;28;20176;-53
2022/03/17 13:55:48;;;;;;;27.33;17.92;;;;;;;;;;4996120;28;20066;-53
2022/03/17 13:58:20;;;;;;;27.60;18.85;;;;;;;;;;4995574;28;20038;-55
2022/03/17 14:00:48;;;;;;;24.80;16.13;;;;;;;;;;4995984;28;20026;-52
2022/03/17 14:03:14;;;;;;;25.42;16.85;;;;;;;;;;4995869;28;20027;-53
2022/03/17 14:05:59;;;;;;;25.90;17.60;;;;;;;;;;4996108;28;20038;-55
2022/03/17 14:08:25;;;;;;;26.05;16.65;;;;;;;;;;4995620;28;20514;-57
2022/03/17 14:10:51;;;;;;;30.67;19.85;;;;;;;;;;4994548;28;20022;-57
2022/03/17 14:13:20;;;;;;;28.83;16.30;;;;;;;;;;4995958;28;20094;-54
2022/03/17 14:15:49;;;;;;;25.63;17.42;;;;;;;;;;4994855;28;20036;-54
2022/03/17 14:18:16;;;;;;;23.65;16.80;;;;;;;;;;4994829;28;20107;-52
2022/03/17 14:20:42;;;;;;;23.83;17.38;;;;;;;;;;4994976;28;20543;-53
2022/03/17 14:25:52;;;;;;;22.98;15.65;;;;;;;;;;4995283;28;20073;-52
2022/03/17 14:28:20;;;;;;;26.33;17.38;;;;;;;;;;4995273;28;20376;-56
2022/03/17 14:30:46;;;;;;;30.38;19.77;;;;;;;;;;4995454;28;20049;-53
2022/03/17 14:33:12;;;;;;;26.95;17.75;;;;;;;;;;4995474;28;20484;-52
2022/03/17 14:35:39;;;;;;;24.55;15.15;;;;;;;;;;4995085;28;20026;-51
2022/03/17 14:38:06;;;;;;;19.38;13.90;;;;;;;;;;4995088;28;20015;-53